76542 UUMU-UUEM
Flight info
| Callsign | 76542 |
|---|---|
| Flight time | N/A |
| Altitude | 19000 |
| Route | UUMU DCT TAREF MASUS NUBDO SIFOD KEZVU TOKNU AMLIN NERAP DCT UUEM |
| Aircraft | IL76/H-SDE3GHIJ2J3J5M1RVWXY/LB2D1 |
Departure
| Time | 2026-04-24 13:25 |
|---|---|
| Airport | Chkalovskiy Air Base (UUMU) |
Arrival
| Time | N/A |
|---|---|
| Airport | Migalovo Air Base (UUEM) |
| Time | Latitude | Longitude | Altitude | Speed | Heading |
|---|---|---|---|---|---|
| 2026-04-24 13:02 | 55.88188 | 38.03930 | 510 ft | 0 kts | 100° |
| 2026-04-24 13:09 | 55.88187 | 38.03932 | 510 ft | 1 kts | 100° |
| 2026-04-24 13:10 | 55.88186 | 38.03953 | 511 ft | 4 kts | 98° |
| 2026-04-24 13:10 | 55.88195 | 38.04008 | 510 ft | 4 kts | 30° |
| 2026-04-24 13:10 | 55.88247 | 38.04028 | 511 ft | 11 kts | 12° |
| 2026-04-24 13:10 | 55.88311 | 38.04049 | 511 ft | 6 kts | 9° |
| 2026-04-24 13:11 | 55.88337 | 38.04057 | 511 ft | 0 kts | 9° |
| 2026-04-24 13:11 | 55.88346 | 38.04059 | 511 ft | 4 kts | 9° |
| 2026-04-24 13:11 | 55.88363 | 38.04064 | 511 ft | 6 kts | 9° |
| 2026-04-24 13:12 | 55.88421 | 38.04087 | 511 ft | 10 kts | 12° |
| 2026-04-24 13:12 | 55.88501 | 38.04113 | 510 ft | 13 kts | 10° |
| 2026-04-24 13:12 | 55.88570 | 38.04135 | 510 ft | 7 kts | 11° |
| 2026-04-24 13:12 | 55.88598 | 38.04143 | 511 ft | 1 kts | 6° |
| 2026-04-24 13:13 | 55.88627 | 38.04145 | 511 ft | 13 kts | 357° |
| 2026-04-24 13:13 | 55.88675 | 38.04199 | 510 ft | 2 kts | 116° |
| 2026-04-24 13:13 | 55.88673 | 38.04205 | 510 ft | 0 kts | 128° |
| 2026-04-24 13:14 | 55.88672 | 38.04206 | 511 ft | 0 kts | 128° |
| 2026-04-24 13:14 | 55.88505 | 38.04550 | 511 ft | 70 kts | 131° |
| 2026-04-24 13:14 | 55.88118 | 38.05347 | 511 ft | 74 kts | 130° |
| 2026-04-24 13:15 | 55.87807 | 38.05998 | 511 ft | 71 kts | 129° |
| 2026-04-24 13:15 | 55.87527 | 38.06587 | 511 ft | 54 kts | 130° |
| 2026-04-24 13:15 | 55.87320 | 38.07019 | 511 ft | 38 kts | 130° |
| 2026-04-24 13:15 | 55.87231 | 38.07275 | 511 ft | 15 kts | 79° |
| 2026-04-24 13:16 | 55.87280 | 38.07338 | 511 ft | 14 kts | 7° |
| 2026-04-24 13:16 | 55.87513 | 38.07349 | 511 ft | 11 kts | 335° |
| 2026-04-24 13:16 | 55.87621 | 38.07170 | 510 ft | 31 kts | 310° |
| 2026-04-24 13:17 | 55.87805 | 38.06774 | 511 ft | 47 kts | 309° |
| 2026-04-24 13:17 | 55.87976 | 38.06428 | 511 ft | 29 kts | 310° |
| 2026-04-24 13:17 | 55.88094 | 38.06171 | 511 ft | 28 kts | 309° |
| 2026-04-24 13:17 | 55.88238 | 38.05874 | 511 ft | 35 kts | 310° |
| 2026-04-24 13:18 | 55.88387 | 38.05529 | 511 ft | 33 kts | 304° |
| 2026-04-24 13:18 | 55.88492 | 38.05269 | 511 ft | 23 kts | 310° |
| 2026-04-24 13:18 | 55.88624 | 38.04997 | 510 ft | 43 kts | 312° |
| 2026-04-24 13:18 | 55.88761 | 38.04730 | 511 ft | 45 kts | 311° |
| 2026-04-24 13:19 | 55.88947 | 38.04367 | 511 ft | 17 kts | 315° |
| 2026-04-24 13:19 | 55.88950 | 38.04243 | 511 ft | 4 kts | 211° |
| 2026-04-24 13:19 | 55.88942 | 38.04237 | 511 ft | 0 kts | 187° |
| 2026-04-24 13:23 | 55.88898 | 38.04232 | 511 ft | 14 kts | 191° |
| 2026-04-24 13:23 | 55.88747 | 38.04190 | 510 ft | 24 kts | 188° |
| 2026-04-24 13:23 | 55.88659 | 38.04219 | 511 ft | 0 kts | 130° |
| 2026-04-24 13:24 | 55.88644 | 38.04251 | 511 ft | 21 kts | 130° |
| 2026-04-24 13:24 | 55.88394 | 38.04772 | 511 ft | 87 kts | 130° |
| 2026-04-24 13:24 | 55.87878 | 38.05846 | 515 ft | 136 kts | 130° |
| 2026-04-24 13:24 | 55.87271 | 38.07147 | 837 ft | 133 kts | 126° |
| 2026-04-24 13:25 | 55.87022 | 38.08723 | 843 ft | 143 kts | 86° |
| 2026-04-24 13:25 | 55.87306 | 38.10283 | 1352 ft | 123 kts | 57° |
| 2026-04-24 13:25 | 55.87844 | 38.11621 | 1395 ft | 152 kts | 55° |
| 2026-04-24 13:25 | 55.88052 | 38.13477 | 1645 ft | 158 kts | 103° |
| 2026-04-24 13:26 | 55.87497 | 38.15147 | 2057 ft | 157 kts | 126° |
| 2026-04-24 13:26 | 55.86956 | 38.16843 | 2433 ft | 159 kts | 118° |
| 2026-04-24 13:26 | 55.86449 | 38.18666 | 2675 ft | 176 kts | 114° |
| 2026-04-24 13:26 | 55.85945 | 38.20767 | 2922 ft | 200 kts | 111° |
| 2026-04-24 13:27 | 55.85407 | 38.23294 | 3211 ft | 231 kts | 109° |
| 2026-04-24 13:27 | 55.84839 | 38.26194 | 3529 ft | 261 kts | 108° |
| 2026-04-24 13:27 | 55.84271 | 38.29240 | 3795 ft | 250 kts | 108° |
| 2026-04-24 13:27 | 55.83764 | 38.32029 | 4092 ft | 226 kts | 107° |
| 2026-04-24 13:28 | 55.83291 | 38.34655 | 4429 ft | 223 kts | 107° |
| 2026-04-24 13:28 | 55.83007 | 38.37355 | 4722 ft | 226 kts | 81° |
| 2026-04-24 13:28 | 55.83763 | 38.39753 | 5083 ft | 227 kts | 41° |
| 2026-04-24 13:28 | 55.84945 | 38.41568 | 5468 ft | 228 kts | 41° |
| 2026-04-24 13:29 | 55.86156 | 38.43446 | 5823 ft | 230 kts | 40° |
| 2026-04-24 13:29 | 55.87363 | 38.45330 | 6175 ft | 231 kts | 41° |
| 2026-04-24 13:29 | 55.88554 | 38.47198 | 6522 ft | 232 kts | 41° |
| 2026-04-24 13:29 | 55.89763 | 38.49099 | 6873 ft | 233 kts | 41° |
| 2026-04-24 13:30 | 55.90983 | 38.51022 | 7225 ft | 234 kts | 41° |
| 2026-04-24 13:30 | 55.92209 | 38.52958 | 7431 ft | 236 kts | 41° |
| 2026-04-24 13:30 | 55.93597 | 38.54432 | 7537 ft | 237 kts | 9° |
| 2026-04-24 13:30 | 55.95193 | 38.53972 | 7723 ft | 237 kts | 330° |
| 2026-04-24 13:31 | 55.96462 | 38.52083 | 7938 ft | 237 kts | 317° |
| 2026-04-24 13:31 | 55.97676 | 38.50140 | 8113 ft | 238 kts | 317° |
| 2026-04-24 13:31 | 55.98906 | 38.48143 | 8290 ft | 238 kts | 317° |
| 2026-04-24 13:31 | 56.00126 | 38.46171 | 8463 ft | 239 kts | 317° |
| 2026-04-24 13:32 | 56.01355 | 38.44188 | 8638 ft | 239 kts | 317° |
| 2026-04-24 13:32 | 56.02599 | 38.42179 | 8815 ft | 240 kts | 317° |
| 2026-04-24 13:32 | 56.03823 | 38.40201 | 8988 ft | 240 kts | 317° |
| 2026-04-24 13:32 | 56.05061 | 38.38201 | 9163 ft | 241 kts | 317° |
| 2026-04-24 13:33 | 56.06307 | 38.36186 | 9339 ft | 242 kts | 317° |
| 2026-04-24 13:33 | 56.07549 | 38.34176 | 9513 ft | 242 kts | 317° |
| 2026-04-24 13:33 | 56.08706 | 38.31971 | 9640 ft | 244 kts | 297° |
| 2026-04-24 13:33 | 56.09145 | 38.29074 | 9855 ft | 243 kts | 282° |
| 2026-04-24 13:34 | 56.09518 | 38.26069 | 10036 ft | 244 kts | 282° |
| 2026-04-24 13:34 | 56.09873 | 38.23106 | 10211 ft | 245 kts | 282° |
| 2026-04-24 13:34 | 56.10237 | 38.20092 | 10388 ft | 246 kts | 282° |
| 2026-04-24 13:34 | 56.10600 | 38.17104 | 10564 ft | 246 kts | 282° |
| 2026-04-24 13:35 | 56.10964 | 38.14096 | 10740 ft | 247 kts | 282° |
| 2026-04-24 13:35 | 56.11327 | 38.11092 | 10915 ft | 247 kts | 282° |
| 2026-04-24 13:35 | 56.11695 | 38.08045 | 11092 ft | 248 kts | 282° |
| 2026-04-24 13:35 | 56.12056 | 38.05045 | 11266 ft | 249 kts | 282° |
| 2026-04-24 13:36 | 56.12421 | 38.02017 | 11441 ft | 249 kts | 282° |
| 2026-04-24 13:36 | 56.12787 | 37.98967 | 11617 ft | 250 kts | 282° |
| 2026-04-24 13:36 | 56.13152 | 37.95917 | 11793 ft | 251 kts | 282° |
| 2026-04-24 13:36 | 56.13518 | 37.92851 | 11969 ft | 251 kts | 282° |
| 2026-04-24 13:37 | 56.13887 | 37.89758 | 12146 ft | 252 kts | 282° |
| 2026-04-24 13:37 | 56.14226 | 37.86687 | 12313 ft | 253 kts | 277° |
| 2026-04-24 13:37 | 56.14338 | 37.83520 | 12494 ft | 255 kts | 274° |
| 2026-04-24 13:37 | 56.14453 | 37.80271 | 12876 ft | 268 kts | 274° |
| 2026-04-24 13:38 | 56.14570 | 37.76865 | 13327 ft | 278 kts | 274° |
| 2026-04-24 13:38 | 56.14691 | 37.73366 | 13769 ft | 288 kts | 274° |
| 2026-04-24 13:38 | 56.14817 | 37.69686 | 14217 ft | 298 kts | 274° |
| 2026-04-24 13:38 | 56.14946 | 37.65922 | 14659 ft | 308 kts | 274° |
| 2026-04-24 13:39 | 56.15078 | 37.62027 | 15099 ft | 317 kts | 274° |
| 2026-04-24 13:39 | 56.15214 | 37.57991 | 15392 ft | 331 kts | 274° |
| 2026-04-24 13:39 | 56.15353 | 37.53835 | 15685 ft | 344 kts | 274° |
| 2026-04-24 13:39 | 56.15497 | 37.49467 | 15980 ft | 356 kts | 274° |
| 2026-04-24 13:40 | 56.15644 | 37.44952 | 16270 ft | 365 kts | 274° |
| 2026-04-24 13:40 | 56.15791 | 37.40389 | 16549 ft | 367 kts | 274° |
| 2026-04-24 13:40 | 56.15935 | 37.35867 | 16821 ft | 368 kts | 274° |
| 2026-04-24 13:40 | 56.16496 | 37.31400 | 17079 ft | 369 kts | 292° |
| 2026-04-24 13:41 | 56.17437 | 37.27095 | 17382 ft | 371 kts | 290° |
| 2026-04-24 13:41 | 56.18376 | 37.22769 | 17557 ft | 382 kts | 291° |
| 2026-04-24 13:41 | 56.19350 | 37.18235 | 17589 ft | 391 kts | 291° |
| 2026-04-24 13:41 | 56.20334 | 37.13653 | 17616 ft | 392 kts | 291° |
| 2026-04-24 13:42 | 56.21305 | 37.09116 | 17640 ft | 391 kts | 291° |
| 2026-04-24 13:42 | 56.22283 | 37.04536 | 17664 ft | 391 kts | 291° |
| 2026-04-24 13:42 | 56.23255 | 36.99975 | 17688 ft | 403 kts | 291° |
| 2026-04-24 13:42 | 56.24278 | 36.95166 | 17763 ft | 416 kts | 291° |
| 2026-04-24 13:43 | 56.25308 | 36.90305 | 17843 ft | 419 kts | 291° |
| 2026-04-24 13:43 | 56.26344 | 36.85406 | 17918 ft | 419 kts | 291° |
| 2026-04-24 13:43 | 56.27379 | 36.80496 | 17993 ft | 419 kts | 291° |
| 2026-04-24 13:43 | 56.28408 | 36.75605 | 18068 ft | 419 kts | 291° |
| 2026-04-24 13:44 | 56.29435 | 36.70718 | 18144 ft | 419 kts | 291° |
| 2026-04-24 13:44 | 56.30470 | 36.65775 | 18220 ft | 420 kts | 291° |
| 2026-04-24 13:44 | 56.31496 | 36.60862 | 18295 ft | 420 kts | 291° |
| 2026-04-24 13:44 | 56.32524 | 36.55930 | 18371 ft | 421 kts | 291° |
| 2026-04-24 13:45 | 56.33554 | 36.50978 | 18447 ft | 421 kts | 291° |
| 2026-04-24 13:45 | 56.34586 | 36.45997 | 18523 ft | 422 kts | 291° |
| 2026-04-24 13:45 | 56.35602 | 36.41087 | 18598 ft | 422 kts | 291° |
| 2026-04-24 13:45 | 56.36618 | 36.36165 | 18638 ft | 423 kts | 291° |
| 2026-04-24 13:46 | 56.37640 | 36.31214 | 18663 ft | 423 kts | 290° |
| 2026-04-24 13:46 | 56.38767 | 36.26321 | 18667 ft | 423 kts | 300° |
| 2026-04-24 13:46 | 56.40628 | 36.22246 | 18716 ft | 423 kts | 312° |
| 2026-04-24 13:46 | 56.42598 | 36.18257 | 18745 ft | 422 kts | 311° |
| 2026-04-24 13:47 | 56.44546 | 36.14361 | 18770 ft | 422 kts | 311° |
| 2026-04-24 13:47 | 56.46460 | 36.10517 | 18709 ft | 403 kts | 312° |
| 2026-04-24 13:47 | 56.48299 | 36.06820 | 18524 ft | 382 kts | 312° |
| 2026-04-24 13:47 | 56.50029 | 36.03344 | 18242 ft | 367 kts | 312° |
| 2026-04-24 13:48 | 56.51711 | 35.99963 | 17945 ft | 353 kts | 312° |
| 2026-04-24 13:48 | 56.53316 | 35.96735 | 17663 ft | 347 kts | 312° |
| 2026-04-24 13:48 | 56.54916 | 35.93517 | 17202 ft | 349 kts | 312° |
| 2026-04-24 13:48 | 56.56537 | 35.90255 | 16439 ft | 351 kts | 312° |
| 2026-04-24 13:49 | 56.58172 | 35.86966 | 15666 ft | 352 kts | 312° |
| 2026-04-24 13:49 | 56.59805 | 35.83678 | 14896 ft | 353 kts | 312° |
| 2026-04-24 13:49 | 56.61441 | 35.80382 | 13945 ft | 359 kts | 312° |
| 2026-04-24 13:49 | 56.63126 | 35.76989 | 12720 ft | 370 kts | 312° |
| 2026-04-24 13:50 | 56.64835 | 35.73544 | 10808 ft | 382 kts | 312° |
| 2026-04-24 13:50 | 56.66535 | 35.70118 | 9431 ft | 366 kts | 312° |
| 2026-04-24 13:50 | 56.68116 | 35.66925 | 9428 ft | 312 kts | 312° |
| 2026-04-24 13:50 | 56.69474 | 35.64180 | 9111 ft | 280 kts | 312° |
| 2026-04-24 13:51 | 56.70688 | 35.61651 | 8852 ft | 253 kts | 304° |
| 2026-04-24 13:51 | 56.71138 | 35.58741 | 8607 ft | 233 kts | 261° |
| 2026-04-24 13:51 | 56.70408 | 35.56148 | 8719 ft | 245 kts | 227° |
| 2026-04-24 13:51 | 56.69115 | 35.53815 | 8556 ft | 268 kts | 233° |
| 2026-04-24 13:52 | 56.68539 | 35.50653 | 8340 ft | 270 kts | 271° |
| 2026-04-24 13:52 | 56.69075 | 35.47448 | 8138 ft | 268 kts | 305° |
| 2026-04-24 13:52 | 56.70282 | 35.44845 | 7971 ft | 267 kts | 311° |
| 2026-04-24 13:52 | 56.71500 | 35.42351 | 7772 ft | 266 kts | 312° |
| 2026-04-24 13:53 | 56.72860 | 35.40124 | 7534 ft | 265 kts | 331° |
| 2026-04-24 13:53 | 56.74494 | 35.38531 | 7363 ft | 264 kts | 332° |
| 2026-04-24 13:53 | 56.76199 | 35.37443 | 7110 ft | 264 kts | 360° |
| 2026-04-24 13:53 | 56.77917 | 35.38378 | 6916 ft | 262 kts | 36° |
| 2026-04-24 13:54 | 56.78999 | 35.40865 | 6733 ft | 247 kts | 72° |
| 2026-04-24 13:54 | 56.79245 | 35.43804 | 6695 ft | 230 kts | 85° |
| 2026-04-24 13:54 | 56.79401 | 35.46767 | 6101 ft | 234 kts | 85° |
| 2026-04-24 13:54 | 56.79539 | 35.49655 | 5485 ft | 229 kts | 85° |
| 2026-04-24 13:55 | 56.79670 | 35.52385 | 5200 ft | 203 kts | 85° |
| 2026-04-24 13:55 | 56.79784 | 35.54750 | 5046 ft | 177 kts | 85° |
| 2026-04-24 13:55 | 56.79890 | 35.56972 | 4731 ft | 174 kts | 85° |
| 2026-04-24 13:55 | 56.80007 | 35.59137 | 4687 ft | 176 kts | 83° |
| 2026-04-24 13:56 | 56.80270 | 35.61357 | 4357 ft | 183 kts | 75° |
| 2026-04-24 13:56 | 56.80611 | 35.63586 | 3998 ft | 176 kts | 74° |
| 2026-04-24 13:56 | 56.80841 | 35.65051 | 3663 ft | 161 kts | 74° |
| 2026-04-24 13:57 | 56.80877 | 35.65281 | 3601 ft | 160 kts | 74° |
| 2026-04-24 13:57 | 56.80972 | 35.65865 | 3445 ft | 157 kts | 73° |
| 2026-04-24 13:58 | 56.80993 | 35.65993 | 3405 ft | 157 kts | 73° |
| 2026-04-24 13:58 | 56.81167 | 35.67049 | 3024 ft | 159 kts | 73° |
| 2026-04-24 13:58 | 56.81449 | 35.68829 | 2346 ft | 162 kts | 73° |
| 2026-04-24 13:59 | 56.81464 | 35.68921 | 2312 ft | 162 kts | 74° |
| 2026-04-24 14:00 | 56.81578 | 35.69665 | 2157 ft | 159 kts | 75° |
| 2026-04-24 14:00 | 56.81859 | 35.71584 | 2438 ft | 159 kts | 75° |
| 2026-04-24 14:00 | 56.82171 | 35.73689 | 2687 ft | 189 kts | 75° |
| 2026-04-24 14:01 | 56.82550 | 35.76230 | 2809 ft | 217 kts | 75° |
| 2026-04-24 14:01 | 56.82925 | 35.78763 | 2801 ft | 200 kts | 74° |
| 2026-04-24 14:01 | 56.83308 | 35.81039 | 2895 ft | 179 kts | 72° |
| 2026-04-24 14:01 | 56.83488 | 35.83286 | 2492 ft | 185 kts | 97° |
| 2026-04-24 14:02 | 56.83217 | 35.85521 | 2358 ft | 180 kts | 118° |
| 2026-04-24 14:02 | 56.82268 | 35.87000 | 1986 ft | 188 kts | 161° |
| 2026-04-24 14:02 | 56.81028 | 35.87557 | 1940 ft | 178 kts | 167° |
| 2026-04-24 14:02 | 56.79837 | 35.88029 | 1852 ft | 172 kts | 168° |
| 2026-04-24 14:03 | 56.78676 | 35.88475 | 1693 ft | 171 kts | 169° |
| 2026-04-24 14:03 | 56.77508 | 35.88786 | 1591 ft | 167 kts | 172° |
| 2026-04-24 14:03 | 56.76377 | 35.89078 | 1512 ft | 164 kts | 172° |
| 2026-04-24 14:03 | 56.75244 | 35.89367 | 1327 ft | 168 kts | 172° |
| 2026-04-24 14:04 | 56.73991 | 35.89740 | 644 ft | 202 kts | 169° |